sensor_id;sensor_type;location;lat;lon;timestamp;pressure;altitude;pressure_sealevel;temperature
34023;BMP280;20673;48.980;8.138;2022-08-19T00:00:36;99675.01;;;19.46
34023;BMP280;20673;48.980;8.138;2022-08-19T00:03:04;99672.61;;;19.45
34023;BMP280;20673;48.980;8.138;2022-08-19T00:05:31;99668.83;;;19.45
34023;BMP280;20673;48.980;8.138;2022-08-19T00:07:57;99666.19;;;19.46
34023;BMP280;20673;48.980;8.138;2022-08-19T00:10:24;99675.86;;;19.41
34023;BMP280;20673;48.980;8.138;2022-08-19T00:12:51;99676.01;;;19.39
34023;BMP280;20673;48.980;8.138;2022-08-19T00:15:20;99676.40;;;19.39
34023;BMP280;20673;48.980;8.138;2022-08-19T00:17:47;99671.01;;;19.41
34023;BMP280;20673;48.980;8.138;2022-08-19T00:20:17;99671.47;;;19.40
34023;BMP280;20673;48.980;8.138;2022-08-19T00:22:47;99674.93;;;19.40
34023;BMP280;20673;48.980;8.138;2022-08-19T00:25:15;99671.18;;;19.39
34023;BMP280;20673;48.980;8.138;2022-08-19T00:27:42;99661.62;;;19.37
34023;BMP280;20673;48.980;8.138;2022-08-19T00:30:09;99651.18;;;19.35
34023;BMP280;20673;48.980;8.138;2022-08-19T00:32:36;99653.17;;;19.31
34023;BMP280;20673;48.980;8.138;2022-08-19T00:35:03;99659.31;;;19.32
34023;BMP280;20673;48.980;8.138;2022-08-19T00:37:29;99664.58;;;19.31
34023;BMP280;20673;48.980;8.138;2022-08-19T00:39:56;99667.94;;;19.30
34023;BMP280;20673;48.980;8.138;2022-08-19T00:42:22;99669.35;;;19.31
34023;BMP280;20673;48.980;8.138;2022-08-19T00:44:49;99675.15;;;19.32
34023;BMP280;20673;48.980;8.138;2022-08-19T00:47:16;99683.79;;;19.32
34023;BMP280;20673;48.980;8.138;2022-08-19T00:49:50;99680.11;;;19.29
34023;BMP280;20673;48.980;8.138;2022-08-19T00:52:30;99674.53;;;19.29
34023;BMP280;20673;48.980;8.138;2022-08-19T00:54:54;99664.34;;;19.27
34023;BMP280;20673;48.980;8.138;2022-08-19T00:57:35;99656.83;;;19.31
34023;BMP280;20673;48.980;8.138;2022-08-19T01:00:00;99644.68;;;19.31
34023;BMP280;20673;48.980;8.138;2022-08-19T01:02:29;99636.56;;;19.31
34023;BMP280;20673;48.980;8.138;2022-08-19T01:04:56;99641.68;;;19.34
34023;BMP280;20673;48.980;8.138;2022-08-19T01:07:22;99652.90;;;19.32
34023;BMP280;20673;48.980;8.138;2022-08-19T01:09:49;99660.58;;;19.32
34023;BMP280;20673;48.980;8.138;2022-08-19T01:12:17;99663.08;;;19.33
34023;BMP280;20673;48.980;8.138;2022-08-19T01:14:45;99666.27;;;19.35
34023;BMP280;20673;48.980;8.138;2022-08-19T01:17:13;99672.81;;;19.36
34023;BMP280;20673;48.980;8.138;2022-08-19T01:19:43;99675.17;;;19.41
34023;BMP280;20673;48.980;8.138;2022-08-19T01:24:52;99671.59;;;19.40
34023;BMP280;20673;48.980;8.138;2022-08-19T01:27:18;99664.90;;;19.44
34023;BMP280;20673;48.980;8.138;2022-08-19T01:29:45;99665.28;;;19.43
34023;BMP280;20673;48.980;8.138;2022-08-19T01:32:15;99663.33;;;19.45
34023;BMP280;20673;48.980;8.138;2022-08-19T01:34:42;99671.09;;;19.45
34023;BMP280;20673;48.980;8.138;2022-08-19T01:37:12;99671.47;;;19.47
34023;BMP280;20673;48.980;8.138;2022-08-19T01:39:41;99673.12;;;19.48
34023;BMP280;20673;48.980;8.138;2022-08-19T01:42:08;99674.86;;;19.49
34023;BMP280;20673;48.980;8.138;2022-08-19T01:44:39;99680.03;;;19.51
34023;BMP280;20673;48.980;8.138;2022-08-19T01:47:07;99683.76;;;19.54
34023;BMP280;20673;48.980;8.138;2022-08-19T01:49:36;99684.03;;;19.54
34023;BMP280;20673;48.980;8.138;2022-08-19T01:52:04;99685.62;;;19.54
34023;BMP280;20673;48.980;8.138;2022-08-19T01:54:30;99682.58;;;19.56
34023;BMP280;20673;48.980;8.138;2022-08-19T01:57:05;99683.50;;;19.53
34023;BMP280;20673;48.980;8.138;2022-08-19T01:59:33;99680.98;;;19.52
34023;BMP280;20673;48.980;8.138;2022-08-19T02:01:59;99672.02;;;19.57
34023;BMP280;20673;48.980;8.138;2022-08-19T02:04:25;99664.25;;;19.52
34023;BMP280;20673;48.980;8.138;2022-08-19T02:06:52;99663.08;;;19.50
34023;BMP280;20673;48.980;8.138;2022-08-19T02:09:18;99668.22;;;19.45
34023;BMP280;20673;48.980;8.138;2022-08-19T02:11:45;99670.17;;;19.39
34023;BMP280;20673;48.980;8.138;2022-08-19T02:14:11;99670.00;;;19.34
34023;BMP280;20673;48.980;8.138;2022-08-19T02:16:37;99675.97;;;19.33
34023;BMP280;20673;48.980;8.138;2022-08-19T02:19:04;99678.86;;;19.31
34023;BMP280;20673;48.980;8.138;2022-08-19T02:21:31;99676.94;;;19.30
34023;BMP280;20673;48.980;8.138;2022-08-19T02:23:58;99678.61;;;19.28
34023;BMP280;20673;48.980;8.138;2022-08-19T02:26:24;99672.42;;;19.27
34023;BMP280;20673;48.980;8.138;2022-08-19T02:28:52;99672.54;;;19.25
34023;BMP280;20673;48.980;8.138;2022-08-19T02:31:22;99669.22;;;19.24
34023;BMP280;20673;48.980;8.138;2022-08-19T02:33:49;99669.74;;;19.27
34023;BMP280;20673;48.980;8.138;2022-08-19T02:36:16;99669.12;;;19.25
34023;BMP280;20673;48.980;8.138;2022-08-19T02:38:44;99668.58;;;19.24
34023;BMP280;20673;48.980;8.138;2022-08-19T02:41:16;99671.61;;;19.24
34023;BMP280;20673;48.980;8.138;2022-08-19T02:43:42;99669.59;;;19.22
34023;BMP280;20673;48.980;8.138;2022-08-19T02:46:22;99669.70;;;19.21
34023;BMP280;20673;48.980;8.138;2022-08-19T02:48:54;99666.90;;;19.20
34023;BMP280;20673;48.980;8.138;2022-08-19T02:51:30;99666.91;;;19.22
34023;BMP280;20673;48.980;8.138;2022-08-19T02:53:52;99663.15;;;19.19
34023;BMP280;20673;48.980;8.138;2022-08-19T02:56:19;99661.28;;;19.20
34023;BMP280;20673;48.980;8.138;2022-08-19T02:58:47;99661.95;;;19.21
34023;BMP280;20673;48.980;8.138;2022-08-19T03:01:24;99665.90;;;19.23
34023;BMP280;20673;48.980;8.138;2022-08-19T03:03:51;99663.99;;;19.19
34023;BMP280;20673;48.980;8.138;2022-08-19T03:06:18;99660.14;;;19.16
34023;BMP280;20673;48.980;8.138;2022-08-19T03:08:47;99664.23;;;19.12
34023;BMP280;20673;48.980;8.138;2022-08-19T03:11:29;99665.06;;;19.12
34023;BMP280;20673;48.980;8.138;2022-08-19T03:13:57;99662.43;;;19.10
34023;BMP280;20673;48.980;8.138;2022-08-19T03:16:28;99663.37;;;19.12
34023;BMP280;20673;48.980;8.138;2022-08-19T03:18:56;99668.72;;;19.10
34023;BMP280;20673;48.980;8.138;2022-08-19T03:21:28;99670.45;;;19.06
34023;BMP280;20673;48.980;8.138;2022-08-19T03:23:58;99671.40;;;19.05
34023;BMP280;20673;48.980;8.138;2022-08-19T03:26:25;99673.53;;;19.05
34023;BMP280;20673;48.980;8.138;2022-08-19T03:28:51;99670.97;;;19.04
34023;BMP280;20673;48.980;8.138;2022-08-19T03:31:21;99669.97;;;19.04
34023;BMP280;20673;48.980;8.138;2022-08-19T03:33:50;99673.81;;;19.06
34023;BMP280;20673;48.980;8.138;2022-08-19T03:36:23;99673.25;;;19.05
34023;BMP280;20673;48.980;8.138;2022-08-19T03:38:53;99675.03;;;19.05
34023;BMP280;20673;48.980;8.138;2022-08-19T03:41:27;99678.17;;;19.05
34023;BMP280;20673;48.980;8.138;2022-08-19T03:43:54;99670.00;;;19.07
34023;BMP280;20673;48.980;8.138;2022-08-19T03:46:28;99671.90;;;19.08
34023;BMP280;20673;48.980;8.138;2022-08-19T03:48:55;99674.64;;;19.07
34023;BMP280;20673;48.980;8.138;2022-08-19T03:51:32;99682.39;;;19.07
34023;BMP280;20673;48.980;8.138;2022-08-19T03:54:01;99685.89;;;19.08
34023;BMP280;20673;48.980;8.138;2022-08-19T03:56:29;99688.45;;;19.08
34023;BMP280;20673;48.980;8.138;2022-08-19T03:58:57;99688.67;;;19.06
34023;BMP280;20673;48.980;8.138;2022-08-19T04:01:28;99689.40;;;19.07
34023;BMP280;20673;48.980;8.138;2022-08-19T04:03:56;99685.37;;;19.05
34023;BMP280;20673;48.980;8.138;2022-08-19T04:06:32;99684.72;;;19.03
34023;BMP280;20673;48.980;8.138;2022-08-19T04:08:57;99690.06;;;19.03
34023;BMP280;20673;48.980;8.138;2022-08-19T04:11:28;99689.62;;;19.02
34023;BMP280;20673;48.980;8.138;2022-08-19T04:13:56;99697.15;;;19.01
34023;BMP280;20673;48.980;8.138;2022-08-19T04:16:25;99697.59;;;19.00
34023;BMP280;20673;48.980;8.138;2022-08-19T04:18:55;99698.08;;;18.99
34023;BMP280;20673;48.980;8.138;2022-08-19T04:21:25;99698.96;;;18.98
34023;BMP280;20673;48.980;8.138;2022-08-19T04:23:52;99699.87;;;18.98
34023;BMP280;20673;48.980;8.138;2022-08-19T04:26:24;99695.42;;;18.95
34023;BMP280;20673;48.980;8.138;2022-08-19T04:28:51;99701.48;;;18.95
34023;BMP280;20673;48.980;8.138;2022-08-19T04:31:21;99696.68;;;18.92
34023;BMP280;20673;48.980;8.138;2022-08-19T04:33:47;99692.64;;;18.88
34023;BMP280;20673;48.980;8.138;2022-08-19T04:36:21;99686.72;;;18.84
34023;BMP280;20673;48.980;8.138;2022-08-19T04:38:49;99685.12;;;18.84
34023;BMP280;20673;48.980;8.138;2022-08-19T04:41:16;99690.36;;;18.83
34023;BMP280;20673;48.980;8.138;2022-08-19T04:44:00;99692.14;;;18.83
34023;BMP280;20673;48.980;8.138;2022-08-19T04:46:28;99690.92;;;18.84
34023;BMP280;20673;48.980;8.138;2022-08-19T04:48:56;99693.79;;;18.85
34023;BMP280;20673;48.980;8.138;2022-08-19T04:51:23;99696.76;;;18.84
34023;BMP280;20673;48.980;8.138;2022-08-19T04:53:50;99697.10;;;18.84
34023;BMP280;20673;48.980;8.138;2022-08-19T04:56:19;99697.90;;;18.87
34023;BMP280;20673;48.980;8.138;2022-08-19T04:58:49;99693.61;;;18.89
34023;BMP280;20673;48.980;8.138;2022-08-19T05:01:25;99698.37;;;18.90
34023;BMP280;20673;48.980;8.138;2022-08-19T05:03:52;99703.72;;;18.93
34023;BMP280;20673;48.980;8.138;2022-08-19T05:06:22;99715.82;;;18.99
34023;BMP280;20673;48.980;8.138;2022-08-19T05:08:49;99727.14;;;19.07
34023;BMP280;20673;48.980;8.138;2022-08-19T05:11:25;99732.95;;;19.13
34023;BMP280;20673;48.980;8.138;2022-08-19T05:13:48;99735.00;;;19.16
34023;BMP280;20673;48.980;8.138;2022-08-19T05:16:18;99733.46;;;19.20
34023;BMP280;20673;48.980;8.138;2022-08-19T05:18:46;99731.67;;;19.26
34023;BMP280;20673;48.980;8.138;2022-08-19T05:21:32;99732.61;;;19.31
34023;BMP280;20673;48.980;8.138;2022-08-19T05:24:17;99738.31;;;19.38
34023;BMP280;20673;48.980;8.138;2022-08-19T05:26:47;99744.26;;;19.42
34023;BMP280;20673;48.980;8.138;2022-08-19T05:29:17;99744.85;;;19.48
34023;BMP280;20673;48.980;8.138;2022-08-19T05:31:45;99746.47;;;19.56
34023;BMP280;20673;48.980;8.138;2022-08-19T05:34:12;99757.37;;;19.61
34023;BMP280;20673;48.980;8.138;2022-08-19T05:36:42;99761.58;;;19.66
34023;BMP280;20673;48.980;8.138;2022-08-19T05:39:14;99763.51;;;19.69
34023;BMP280;20673;48.980;8.138;2022-08-19T05:41:45;99766.64;;;19.76
34023;BMP280;20673;48.980;8.138;2022-08-19T05:44:13;99775.75;;;19.83
34023;BMP280;20673;48.980;8.138;2022-08-19T05:46:45;99775.95;;;19.90
34023;BMP280;20673;48.980;8.138;2022-08-19T05:49:16;99776.45;;;19.96
34023;BMP280;20673;48.980;8.138;2022-08-19T05:51:42;99779.91;;;20.03
34023;BMP280;20673;48.980;8.138;2022-08-19T05:54:09;99781.28;;;20.07
34023;BMP280;20673;48.980;8.138;2022-08-19T05:56:37;99790.34;;;20.17
34023;BMP280;20673;48.980;8.138;2022-08-19T05:59:06;99789.34;;;20.22
34023;BMP280;20673;48.980;8.138;2022-08-19T06:01:35;99792.38;;;20.31
34023;BMP280;20673;48.980;8.138;2022-08-19T06:04:03;99789.65;;;20.42
34023;BMP280;20673;48.980;8.138;2022-08-19T06:06:29;99789.79;;;20.51
34023;BMP280;20673;48.980;8.138;2022-08-19T06:08:55;99793.22;;;20.58
34023;BMP280;20673;48.980;8.138;2022-08-19T06:14:15;99792.48;;;20.73
34023;BMP280;20673;48.980;8.138;2022-08-19T06:16:40;99791.43;;;20.81
34023;BMP280;20673;48.980;8.138;2022-08-19T06:19:14;99793.61;;;20.89
34023;BMP280;20673;48.980;8.138;2022-08-19T06:21:45;99790.33;;;20.97
34023;BMP280;20673;48.980;8.138;2022-08-19T06:24:15;99784.67;;;21.03
34023;BMP280;20673;48.980;8.138;2022-08-19T06:26:46;99784.15;;;21.11
34023;BMP280;20673;48.980;8.138;2022-08-19T06:29:15;99791.33;;;21.15
34023;BMP280;20673;48.980;8.138;2022-08-19T06:31:46;99792.00;;;21.26
34023;BMP280;20673;48.980;8.138;2022-08-19T06:34:13;99790.22;;;21.37
34023;BMP280;20673;48.980;8.138;2022-08-19T06:36:46;99793.90;;;21.43
34023;BMP280;20673;48.980;8.138;2022-08-19T06:39:20;99795.45;;;21.54
34023;BMP280;20673;48.980;8.138;2022-08-19T06:41:50;99800.78;;;21.61
34023;BMP280;20673;48.980;8.138;2022-08-19T06:44:19;99799.55;;;21.56
34023;BMP280;20673;48.980;8.138;2022-08-19T06:46:46;99807.18;;;21.70
34023;BMP280;20673;48.980;8.138;2022-08-19T06:49:16;99803.10;;;21.71
34023;BMP280;20673;48.980;8.138;2022-08-19T06:51:45;99806.59;;;21.74
34023;BMP280;20673;48.980;8.138;2022-08-19T06:54:15;99798.03;;;21.85
34023;BMP280;20673;48.980;8.138;2022-08-19T06:56:42;99804.68;;;21.93
34023;BMP280;20673;48.980;8.138;2022-08-19T06:59:18;99802.37;;;21.95
34023;BMP280;20673;48.980;8.138;2022-08-19T07:01:51;99803.45;;;22.02
34023;BMP280;20673;48.980;8.138;2022-08-19T07:04:22;99802.48;;;22.08
34023;BMP280;20673;48.980;8.138;2022-08-19T07:06:55;99809.26;;;22.21
34023;BMP280;20673;48.980;8.138;2022-08-19T07:09:18;99811.53;;;22.34
34023;BMP280;20673;48.980;8.138;2022-08-19T07:11:49;99810.39;;;22.45
34023;BMP280;20673;48.980;8.138;2022-08-19T07:14:19;99807.81;;;22.50
34023;BMP280;20673;48.980;8.138;2022-08-19T07:16:48;99809.29;;;22.55
34023;BMP280;20673;48.980;8.138;2022-08-19T07:19:16;99806.33;;;22.69
34023;BMP280;20673;48.980;8.138;2022-08-19T07:21:43;99805.01;;;22.84
34023;BMP280;20673;48.980;8.138;2022-08-19T07:24:09;99807.97;;;23.05
34023;BMP280;20673;48.980;8.138;2022-08-19T07:26:41;99813.09;;;23.19
34023;BMP280;20673;48.980;8.138;2022-08-19T07:29:10;99810.53;;;23.32
34023;BMP280;20673;48.980;8.138;2022-08-19T07:31:37;99808.75;;;23.47
34023;BMP280;20673;48.980;8.138;2022-08-19T07:34:08;99810.86;;;23.73
34023;BMP280;20673;48.980;8.138;2022-08-19T07:36:37;99811.89;;;24.00
34023;BMP280;20673;48.980;8.138;2022-08-19T07:39:09;99809.15;;;24.29
34023;BMP280;20673;48.980;8.138;2022-08-19T07:41:36;99808.59;;;24.48
34023;BMP280;20673;48.980;8.138;2022-08-19T07:44:04;99805.89;;;24.62
34023;BMP280;20673;48.980;8.138;2022-08-19T07:46:37;99803.26;;;24.82
34023;BMP280;20673;48.980;8.138;2022-08-19T07:49:05;99807.86;;;24.70
34023;BMP280;20673;48.980;8.138;2022-08-19T07:51:32;99808.40;;;24.60
34023;BMP280;20673;48.980;8.138;2022-08-19T07:53:58;99809.93;;;24.43
34023;BMP280;20673;48.980;8.138;2022-08-19T07:56:26;99807.67;;;24.66
34023;BMP280;20673;48.980;8.138;2022-08-19T07:58:53;99800.86;;;24.86
34023;BMP280;20673;48.980;8.138;2022-08-19T08:01:26;99799.08;;;25.25
34023;BMP280;20673;48.980;8.138;2022-08-19T08:03:56;99803.23;;;25.30
34023;BMP280;20673;48.980;8.138;2022-08-19T08:06:40;99803.20;;;25.37
34023;BMP280;20673;48.980;8.138;2022-08-19T08:09:36;99804.90;;;25.62
34023;BMP280;20673;48.980;8.138;2022-08-19T08:12:10;99805.95;;;26.04
34023;BMP280;20673;48.980;8.138;2022-08-19T08:14:50;99797.54;;;26.42
34023;BMP280;20673;48.980;8.138;2022-08-19T08:17:16;99792.45;;;26.18
34023;BMP280;20673;48.980;8.138;2022-08-19T08:19:45;99791.88;;;26.15
34023;BMP280;20673;48.980;8.138;2022-08-19T08:22:15;99796.57;;;26.20
34023;BMP280;20673;48.980;8.138;2022-08-19T08:25:15;99796.50;;;26.20
34023;BMP280;20673;48.980;8.138;2022-08-19T08:27:44;99803.84;;;26.14
34023;BMP280;20673;48.980;8.138;2022-08-19T08:30:22;99801.28;;;26.07
34023;BMP280;20673;48.980;8.138;2022-08-19T08:32:46;99802.83;;;25.87
34023;BMP280;20673;48.980;8.138;2022-08-19T08:35:16;99797.03;;;26.04
34023;BMP280;20673;48.980;8.138;2022-08-19T08:37:44;99806.28;;;25.93
34023;BMP280;20673;48.980;8.138;2022-08-19T08:45:44;99814.08;;;26.31
34023;BMP280;20673;48.980;8.138;2022-08-19T08:51:05;99815.67;;;26.79
34023;BMP280;20673;48.980;8.138;2022-08-19T08:53:34;99820.91;;;26.99
34023;BMP280;20673;48.980;8.138;2022-08-19T08:56:04;99815.26;;;26.97
34023;BMP280;20673;48.980;8.138;2022-08-19T08:58:44;99817.99;;;27.02
34023;BMP280;20673;48.980;8.138;2022-08-19T09:01:11;99817.90;;;27.42
34023;BMP280;20673;48.980;8.138;2022-08-19T09:03:40;99819.16;;;27.55
34023;BMP280;20673;48.980;8.138;2022-08-19T09:09:17;99810.11;;;27.79
34023;BMP280;20673;48.980;8.138;2022-08-19T09:12:10;99808.04;;;27.97
34023;BMP280;20673;48.980;8.138;2022-08-19T09:14:45;99812.87;;;27.85
34023;BMP280;20673;48.980;8.138;2022-08-19T09:17:12;99811.53;;;27.90
34023;BMP280;20673;48.980;8.138;2022-08-19T09:19:58;99817.50;;;27.83
34023;BMP280;20673;48.980;8.138;2022-08-19T09:22:26;99820.20;;;28.28
34023;BMP280;20673;48.980;8.138;2022-08-19T09:24:54;99819.58;;;28.49
34023;BMP280;20673;48.980;8.138;2022-08-19T09:27:22;99818.82;;;28.55
34023;BMP280;20673;48.980;8.138;2022-08-19T09:29:53;99816.35;;;28.81
34023;BMP280;20673;48.980;8.138;2022-08-19T09:32:21;99817.37;;;28.81
34023;BMP280;20673;48.980;8.138;2022-08-19T09:34:48;99819.40;;;28.72
34023;BMP280;20673;48.980;8.138;2022-08-19T09:37:14;99824.01;;;28.95
34023;BMP280;20673;48.980;8.138;2022-08-19T09:39:41;99815.98;;;29.37
34023;BMP280;20673;48.980;8.138;2022-08-19T09:42:08;99819.59;;;29.25
34023;BMP280;20673;48.980;8.138;2022-08-19T09:44:40;99828.03;;;29.72
34023;BMP280;20673;48.980;8.138;2022-08-19T09:47:09;99822.01;;;30.03
34023;BMP280;20673;48.980;8.138;2022-08-19T09:49:35;99824.64;;;30.50
34023;BMP280;20673;48.980;8.138;2022-08-19T09:52:03;99796.98;;;30.55
34023;BMP280;20673;48.980;8.138;2022-08-19T09:54:29;99815.47;;;31.27
34023;BMP280;20673;48.980;8.138;2022-08-19T09:56:58;99805.79;;;30.44
34023;BMP280;20673;48.980;8.138;2022-08-19T09:59:27;99825.40;;;30.69
34023;BMP280;20673;48.980;8.138;2022-08-19T10:01:54;99809.90;;;29.89
34023;BMP280;20673;48.980;8.138;2022-08-19T10:04:20;99818.77;;;29.27
34023;BMP280;20673;48.980;8.138;2022-08-19T10:06:51;99825.62;;;29.86
34023;BMP280;20673;48.980;8.138;2022-08-19T10:09:19;99817.31;;;29.55
34023;BMP280;20673;48.980;8.138;2022-08-19T10:11:45;99820.08;;;29.66
34023;BMP280;20673;48.980;8.138;2022-08-19T10:14:15;99815.43;;;29.65
34023;BMP280;20673;48.980;8.138;2022-08-19T10:16:43;99820.04;;;29.58
34023;BMP280;20673;48.980;8.138;2022-08-19T10:19:09;99819.48;;;29.71
34023;BMP280;20673;48.980;8.138;2022-08-19T10:21:36;99824.63;;;30.25
34023;BMP280;20673;48.980;8.138;2022-08-19T10:24:05;99810.40;;;29.88
34023;BMP280;20673;48.980;8.138;2022-08-19T10:26:35;99811.65;;;30.21
34023;BMP280;20673;48.980;8.138;2022-08-19T10:29:04;99806.00;;;29.94
34023;BMP280;20673;48.980;8.138;2022-08-19T10:31:33;99797.55;;;29.41
34023;BMP280;20673;48.980;8.138;2022-08-19T10:34:00;99808.82;;;28.66
34023;BMP280;20673;48.980;8.138;2022-08-19T10:36:32;99806.43;;;28.50
34023;BMP280;20673;48.980;8.138;2022-08-19T10:39:03;99801.12;;;28.45
34023;BMP280;20673;48.980;8.138;2022-08-19T10:41:33;99806.65;;;28.17
34023;BMP280;20673;48.980;8.138;2022-08-19T10:44:04;99803.83;;;28.23
34023;BMP280;20673;48.980;8.138;2022-08-19T10:46:33;99801.00;;;28.18
34023;BMP280;20673;48.980;8.138;2022-08-19T10:49:02;99798.27;;;28.09
34023;BMP280;20673;48.980;8.138;2022-08-19T10:51:29;99801.14;;;27.55
34023;BMP280;20673;48.980;8.138;2022-08-19T10:54:15;99805.03;;;27.62
34023;BMP280;20673;48.980;8.138;2022-08-19T10:56:42;99793.33;;;27.62
34023;BMP280;20673;48.980;8.138;2022-08-19T10:59:27;99795.85;;;27.69
34023;BMP280;20673;48.980;8.138;2022-08-19T11:02:00;99793.14;;;27.80
34023;BMP280;20673;48.980;8.138;2022-08-19T11:04:28;99792.96;;;27.88
34023;BMP280;20673;48.980;8.138;2022-08-19T11:06:55;99783.93;;;28.05
34023;BMP280;20673;48.980;8.138;2022-08-19T11:09:24;99786.24;;;28.56
34023;BMP280;20673;48.980;8.138;2022-08-19T11:11:52;99785.36;;;28.75
34023;BMP280;20673;48.980;8.138;2022-08-19T11:14:20;99774.85;;;28.59
34023;BMP280;20673;48.980;8.138;2022-08-19T11:16:48;99770.35;;;28.52
34023;BMP280;20673;48.980;8.138;2022-08-19T11:19:16;99767.65;;;28.20
34023;BMP280;20673;48.980;8.138;2022-08-19T11:21:47;99775.67;;;28.04
34023;BMP280;20673;48.980;8.138;2022-08-19T11:24:20;99768.92;;;27.68
34023;BMP280;20673;48.980;8.138;2022-08-19T11:26:50;99765.59;;;27.66
34023;BMP280;20673;48.980;8.138;2022-08-19T11:29:19;99777.23;;;27.98
34023;BMP280;20673;48.980;8.138;2022-08-19T11:31:48;99771.76;;;28.88
34023;BMP280;20673;48.980;8.138;2022-08-19T11:34:20;99767.33;;;29.40
34023;BMP280;20673;48.980;8.138;2022-08-19T11:36:47;99762.70;;;29.92
34023;BMP280;20673;48.980;8.138;2022-08-19T11:39:17;99753.93;;;30.69
34023;BMP280;20673;48.980;8.138;2022-08-19T11:41:44;99746.58;;;30.87
34023;BMP280;20673;48.980;8.138;2022-08-19T11:44:11;99742.04;;;31.07
34023;BMP280;20673;48.980;8.138;2022-08-19T11:46:41;99740.40;;;31.27
34023;BMP280;20673;48.980;8.138;2022-08-19T11:49:07;99745.86;;;31.33
34023;BMP280;20673;48.980;8.138;2022-08-19T11:51:35;99726.03;;;30.31
34023;BMP280;20673;48.980;8.138;2022-08-19T11:54:05;99725.18;;;29.75
34023;BMP280;20673;48.980;8.138;2022-08-19T11:56:32;99737.61;;;29.93
34023;BMP280;20673;48.980;8.138;2022-08-19T11:59:00;99721.15;;;29.98
34023;BMP280;20673;48.980;8.138;2022-08-19T12:01:27;99727.71;;;30.03
34023;BMP280;20673;48.980;8.138;2022-08-19T12:03:55;99725.29;;;29.78
34023;BMP280;20673;48.980;8.138;2022-08-19T12:06:29;99725.36;;;29.89
34023;BMP280;20673;48.980;8.138;2022-08-19T12:09:01;99727.76;;;29.76
34023;BMP280;20673;48.980;8.138;2022-08-19T12:11:28;99737.50;;;30.44
34023;BMP280;20673;48.980;8.138;2022-08-19T12:13:54;99719.30;;;30.57
34023;BMP280;20673;48.980;8.138;2022-08-19T12:16:26;99717.33;;;30.16
34023;BMP280;20673;48.980;8.138;2022-08-19T12:18:52;99716.20;;;30.09
34023;BMP280;20673;48.980;8.138;2022-08-19T12:21:23;99717.63;;;30.61
34023;BMP280;20673;48.980;8.138;2022-08-19T12:23:51;99719.75;;;29.98
34023;BMP280;20673;48.980;8.138;2022-08-19T12:26:18;99730.75;;;29.39
34023;BMP280;20673;48.980;8.138;2022-08-19T12:28:44;99742.26;;;29.97
34023;BMP280;20673;48.980;8.138;2022-08-19T12:31:11;99734.17;;;29.81
34023;BMP280;20673;48.980;8.138;2022-08-19T12:33:39;99721.00;;;30.25
34023;BMP280;20673;48.980;8.138;2022-08-19T12:36:10;99718.47;;;30.13
34023;BMP280;20673;48.980;8.138;2022-08-19T12:38:37;99717.83;;;30.16
34023;BMP280;20673;48.980;8.138;2022-08-19T12:41:08;99727.36;;;29.97
34023;BMP280;20673;48.980;8.138;2022-08-19T12:43:35;99730.43;;;29.94
34023;BMP280;20673;48.980;8.138;2022-08-19T12:46:02;99727.37;;;29.82
34023;BMP280;20673;48.980;8.138;2022-08-19T12:48:35;99736.54;;;30.83
34023;BMP280;20673;48.980;8.138;2022-08-19T12:50:59;99734.75;;;31.51
34023;BMP280;20673;48.980;8.138;2022-08-19T12:53:26;99721.37;;;31.09
34023;BMP280;20673;48.980;8.138;2022-08-19T12:56:00;99738.50;;;31.16
34023;BMP280;20673;48.980;8.138;2022-08-19T12:58:27;99735.95;;;32.07
34023;BMP280;20673;48.980;8.138;2022-08-19T13:00:54;99729.87;;;32.06
34023;BMP280;20673;48.980;8.138;2022-08-19T13:03:21;99719.34;;;31.31
34023;BMP280;20673;48.980;8.138;2022-08-19T13:05:52;99712.45;;;30.77
34023;BMP280;20673;48.980;8.138;2022-08-19T13:08:18;99716.79;;;30.39
34023;BMP280;20673;48.980;8.138;2022-08-19T13:10:45;99717.34;;;30.31
34023;BMP280;20673;48.980;8.138;2022-08-19T13:13:12;99713.30;;;30.10
34023;BMP280;20673;48.980;8.138;2022-08-19T13:15:41;99713.08;;;29.99
34023;BMP280;20673;48.980;8.138;2022-08-19T13:18:10;99709.36;;;30.02
34023;BMP280;20673;48.980;8.138;2022-08-19T13:20:37;99723.84;;;30.48
34023;BMP280;20673;48.980;8.138;2022-08-19T13:23:07;99717.19;;;30.47
34023;BMP280;20673;48.980;8.138;2022-08-19T13:25:33;99711.14;;;30.84
34023;BMP280;20673;48.980;8.138;2022-08-19T13:28:02;99704.95;;;30.48
34023;BMP280;20673;48.980;8.138;2022-08-19T13:30:28;99706.33;;;30.25
34023;BMP280;20673;48.980;8.138;2022-08-19T13:33:13;99701.90;;;30.08
34023;BMP280;20673;48.980;8.138;2022-08-19T13:35:58;99700.58;;;29.99
34023;BMP280;20673;48.980;8.138;2022-08-19T13:38:27;99701.37;;;30.08
34023;BMP280;20673;48.980;8.138;2022-08-19T13:40:55;99698.25;;;30.02
34023;BMP280;20673;48.980;8.138;2022-08-19T13:43:25;99700.81;;;29.70
34023;BMP280;20673;48.980;8.138;2022-08-19T13:45:53;99694.84;;;29.65
34023;BMP280;20673;48.980;8.138;2022-08-19T13:48:22;99696.36;;;29.48
34023;BMP280;20673;48.980;8.138;2022-08-19T13:50:49;99690.40;;;29.52
34023;BMP280;20673;48.980;8.138;2022-08-19T13:53:16;99692.25;;;29.48
34023;BMP280;20673;48.980;8.138;2022-08-19T13:55:43;99700.86;;;29.75
34023;BMP280;20673;48.980;8.138;2022-08-19T13:58:11;99689.20;;;29.75
34023;BMP280;20673;48.980;8.138;2022-08-19T14:00:43;99697.36;;;30.58
34023;BMP280;20673;48.980;8.138;2022-08-19T14:03:09;99694.62;;;31.49
34023;BMP280;20673;48.980;8.138;2022-08-19T14:05:36;99692.49;;;31.64
34023;BMP280;20673;48.980;8.138;2022-08-19T14:08:03;99691.08;;;31.99
34023;BMP280;20673;48.980;8.138;2022-08-19T14:10:30;99690.73;;;32.33
34023;BMP280;20673;48.980;8.138;2022-08-19T14:13:00;99693.92;;;31.99
34023;BMP280;20673;48.980;8.138;2022-08-19T14:15:28;99688.25;;;31.97
34023;BMP280;20673;48.980;8.138;2022-08-19T14:17:55;99674.76;;;32.06
34023;BMP280;20673;48.980;8.138;2022-08-19T14:20:22;99687.65;;;32.43
34023;BMP280;20673;48.980;8.138;2022-08-19T14:22:49;99687.88;;;32.48
34023;BMP280;20673;48.980;8.138;2022-08-19T14:25:25;99685.70;;;32.36
34023;BMP280;20673;48.980;8.138;2022-08-19T14:27:48;99684.09;;;32.53
34023;BMP280;20673;48.980;8.138;2022-08-19T14:30:20;99674.55;;;32.93
34023;BMP280;20673;48.980;8.138;2022-08-19T14:32:46;99674.40;;;32.94
34023;BMP280;20673;48.980;8.138;2022-08-19T14:35:14;99665.90;;;32.25
34023;BMP280;20673;48.980;8.138;2022-08-19T14:37:42;99669.45;;;31.67